SAZM/MDD METAR and TAF weather

Enter ICAO airport designator
Station Type Date Time Source
SAZM METAR 2022/12/04 04:00 UTC NOAA

SAZM 040400Z 00000KT CAVOK 16/14 Q1010 RMK PP///


Station Type Date Time Source
SAZM Decoded METAR 2022/12/04 04:00 UTC NOAA

Mar Del Plata Aerodrome, Argentina (SAZM) 37-56S 057-35W 21M
Dec 03, 2022 - 11:00 PM EST / 2022.12.04 0400 UTC
Wind: Calm:0
Visibility: greater than 7 mile(s):0
Temperature: 60 F (16 C)
Dew Point: 57 F (14 C)
Relative Humidity: 87%
Pressure (altimeter): 29.83 in. Hg (1010 hPa)
ob: SAZM 040400Z 00000KT CAVOK 16/14 Q1010 RMK PP///
cycle: 4

Station Type Date Time Source
SAZM TAF 2022/12/03 18:10 UTC NOAA

TAF SAZM 031700Z 0318/0418 07015KT CAVOK TX28/0418Z TN12/0409Z
TEMPO 0318/0324 07015G30KT
BECMG 0403/0405 34010KT
BECMG 0406/0408 0500 FG OVC003
BECMG 0413/0415 05010KT CAVOK

Example: see airport list